Time,TemperatureF,DewpointF,PressureIn,WindDirection,WindDirectionDegrees,WindSpeedMPH,WindSpeedGustMPH,Humidity,HourlyPrecipIn,Conditions,Clouds,dailyrainin,SoftwareType,DateUTC
2013-05-18 00:01:00,55.8,48.0,30.17,North,360,0.0,0.0,75,0.00,,CLR,0.00,VWS V14.00,2013-05-18 04:01:00,
2013-05-18 00:06:00,55.7,48.3,30.17,North,360,0.0,0.0,76,0.00,,CLR,0.00,VWS V14.00,2013-05-18 04:06:00,
2013-05-18 00:11:00,55.5,48.1,30.17,North,360,0.0,0.0,76,0.00,,CLR,0.00,VWS V14.00,2013-05-18 04:11:00,
2013-05-18 00:16:00,55.4,48.0,30.18,North,360,0.0,0.0,76,0.00,,CLR,0.00,VWS V14.00,2013-05-18 04:16:00,
2013-05-18 00:21:00,55.3,48.2,30.18,North,360,0.0,0.0,77,0.00,,CLR,0.00,VWS V14.00,2013-05-18 04:21:00,
2013-05-18 00:26:00,55.1,48.0,30.18,North,360,0.0,0.0,77,0.00,,CLR,0.00,VWS V14.00,2013-05-18 04:26:00,
2013-05-18 00:31:00,54.9,47.8,30.18,North,360,0.0,0.0,77,0.00,,CLR,0.00,VWS V14.00,2013-05-18 04:31:00,
2013-05-18 00:41:00,54.5,47.5,30.18,North,0,0.0,0.0,77,0.00,,CLR,0.00,VWS V14.00,2013-05-18 04:41:00,
2013-05-18 00:46:00,54.4,47.7,30.18,North,360,0.0,0.0,78,0.00,,CLR,0.00,VWS V14.00,2013-05-18 04:46:00,
2013-05-18 00:51:00,54.2,47.5,30.18,North,360,0.0,0.0,78,0.00,,CLR,0.00,VWS V14.00,2013-05-18 04:51:00,
2013-05-18 00:56:00,54.2,47.8,30.18,North,360,0.0,0.0,79,0.00,,CLR,0.00,VWS V14.00,2013-05-18 04:56:00,
2013-05-18 01:01:00,54.2,47.8,30.18,North,360,0.0,0.0,79,0.00,,FEW100,0.00,VWS V14.00,2013-05-18 05:01:00,
2013-05-18 01:06:00,54.2,48.2,30.18,North,360,0.0,0.0,80,0.00,,FEW100,0.00,VWS V14.00,2013-05-18 05:06:00,
2013-05-18 01:11:00,54.3,48.3,30.18,North,360,0.0,0.0,80,0.00,,FEW100,0.00,VWS V14.00,2013-05-18 05:11:00,
2013-05-18 01:16:00,54.5,48.8,30.17,North,360,0.0,0.0,81,0.00,,FEW100,0.00,VWS V14.00,2013-05-18 05:16:00,
2013-05-18 01:21:00,54.7,49.0,30.17,North,360,0.0,0.0,81,0.00,,FEW100,0.00,VWS V14.00,2013-05-18 05:21:00,
2013-05-18 01:26:00,54.8,49.1,30.17,North,360,0.0,0.0,81,0.00,,FEW100,0.00,VWS V14.00,2013-05-18 05:26:00,
2013-05-18 01:31:00,54.9,49.2,30.18,North,360,0.0,0.0,81,0.00,,FEW100,0.00,VWS V14.00,2013-05-18 05:31:00,
2013-05-18 01:36:00,55.1,49.4,30.18,North,360,0.0,0.0,81,0.00,,FEW100,0.00,VWS V14.00,2013-05-18 05:36:00,
2013-05-18 01:41:00,55.2,49.5,30.18,North,360,0.0,0.0,81,0.00,,FEW100,0.00,VWS V14.00,2013-05-18 05:41:00,
2013-05-18 01:46:00,55.3,49.6,30.18,North,360,0.0,0.0,81,0.00,,FEW100,0.00,VWS V14.00,2013-05-18 05:46:00,
2013-05-18 01:51:00,55.3,49.6,30.18,North,360,0.0,0.0,81,0.00,,FEW100,0.00,VWS V14.00,2013-05-18 05:51:00,
2013-05-18 01:56:00,55.4,49.7,30.18,North,360,0.0,0.0,81,0.00,,FEW100,0.00,VWS V14.00,2013-05-18 05:56:00,
2013-05-18 02:01:00,55.4,49.7,30.18,North,360,0.0,0.0,81,0.00,,OVC080,0.00,VWS V14.00,2013-05-18 06:01:00,
2013-05-18 02:06:00,55.5,49.8,30.18,North,360,0.0,0.0,81,0.00,,OVC080,0.00,VWS V14.00,2013-05-18 06:06:00,
2013-05-18 02:11:00,55.6,49.9,30.18,North,360,0.0,0.0,81,0.00,,OVC080,0.00,VWS V14.00,2013-05-18 06:11:00,
2013-05-18 02:16:00,55.7,50.0,30.18,North,360,0.0,0.0,81,0.00,,OVC080,0.00,VWS V14.00,2013-05-18 06:16:00,
2013-05-18 02:21:00,55.7,50.0,30.18,North,360,0.0,0.0,81,0.00,,OVC080,0.00,VWS V14.00,2013-05-18 06:21:00,
2013-05-18 02:26:00,55.5,49.8,30.18,North,360,0.0,0.0,81,0.00,,OVC080,0.00,VWS V14.00,2013-05-18 06:26:00,
2013-05-18 02:31:00,55.5,49.8,30.18,North,360,0.0,0.0,81,0.00,,OVC080,0.00,VWS V14.00,2013-05-18 06:31:00,
2013-05-18 02:36:00,55.3,49.6,30.18,North,360,0.0,0.0,81,0.00,,OVC080,0.00,VWS V14.00,2013-05-18 06:36:00,
2013-05-18 02:41:00,55.2,49.5,30.18,North,360,0.0,0.0,81,0.00,,OVC080,0.00,VWS V14.00,2013-05-18 06:41:00,
2013-05-18 02:46:00,55.1,49.4,30.18,North,360,0.0,0.0,81,0.00,,OVC080,0.00,VWS V14.00,2013-05-18 06:46:00,
2013-05-18 02:51:00,55.0,49.0,30.18,North,360,0.0,0.0,80,0.00,,OVC080,0.00,VWS V14.00,2013-05-18 06:51:00,
2013-05-18 02:56:00,55.0,49.3,30.18,North,360,0.0,0.0,81,0.00,,OVC080,0.00,VWS V14.00,2013-05-18 06:56:00,
2013-05-18 03:01:00,55.0,49.6,30.18,North,360,0.0,0.0,82,0.00,,OVC080,0.00,VWS V14.00,2013-05-18 07:01:00,
2013-05-18 03:06:00,55.0,49.6,30.18,North,360,0.0,0.0,82,0.00,,OVC085,0.00,VWS V14.00,2013-05-18 07:06:00,
2013-05-18 03:11:00,54.9,49.5,30.18,North,360,0.0,0.0,82,0.00,,OVC085,0.00,VWS V14.00,2013-05-18 07:11:00,
2013-05-18 03:16:00,54.8,49.4,30.19,North,360,0.0,0.0,82,0.00,,OVC085,0.00,VWS V14.00,2013-05-18 07:16:00,
2013-05-18 03:21:00,54.6,48.9,30.19,North,360,0.0,0.0,81,0.00,,OVC085,0.00,VWS V14.00,2013-05-18 07:21:00,
2013-05-18 03:26:00,54.5,49.8,30.19,North,360,0.0,0.0,84,0.00,,OVC085,0.00,VWS V14.00,2013-05-18 07:26:00,
2013-05-18 03:31:00,54.3,48.6,30.19,North,360,0.0,0.0,81,0.00,,OVC085,0.00,VWS V14.00,2013-05-18 07:31:00,
2013-05-18 03:36:00,54.2,48.5,30.19,North,360,0.0,0.0,81,0.00,,OVC085,0.00,VWS V14.00,2013-05-18 07:36:00,
2013-05-18 03:41:00,54.2,48.8,30.19,North,360,0.0,0.0,82,0.00,,OVC085,0.00,VWS V14.00,2013-05-18 07:41:00,
2013-05-18 03:46:00,54.2,48.8,30.20,North,360,0.0,0.0,82,0.00,,OVC085,0.00,VWS V14.00,2013-05-18 07:46:00,
2013-05-18 03:51:00,54.4,49.3,30.20,North,360,0.0,0.0,83,0.00,,OVC085,0.00,VWS V14.00,2013-05-18 07:51:00,
2013-05-18 03:56:00,54.4,49.3,30.20,North,360,0.0,0.0,83,0.00,,OVC085,0.00,VWS V14.00,2013-05-18 07:56:00,
2013-05-18 04:01:00,54.5,49.5,30.20,North,360,0.0,0.0,83,0.00,,BKN090,0.00,VWS V14.00,2013-05-18 08:01:00,
2013-05-18 04:06:00,54.7,50.0,30.20,North,360,0.0,0.0,84,0.00,,BKN090,0.00,VWS V14.00,2013-05-18 08:06:00,
2013-05-18 04:11:00,54.8,50.1,30.20,North,360,0.0,0.0,84,0.00,,BKN090,0.00,VWS V14.00,2013-05-18 08:11:00,
2013-05-18 04:16:00,54.7,50.0,30.21,North,360,0.0,0.0,84,0.00,,BKN090,0.00,VWS V14.00,2013-05-18 08:16:00,
2013-05-18 04:21:00,54.7,50.0,30.21,North,360,0.0,0.0,84,0.00,,BKN090,0.00,VWS V14.00,2013-05-18 08:21:00,
2013-05-18 04:26:00,54.7,49.7,30.21,North,360,0.0,0.0,83,0.00,,BKN090,0.00,VWS V14.00,2013-05-18 08:26:00,
2013-05-18 04:31:00,54.7,49.7,30.21,North,360,0.0,0.0,83,0.00,,BKN090,0.00,VWS V14.00,2013-05-18 08:31:00,
2013-05-18 04:36:00,54.8,49.7,30.21,North,360,0.0,0.0,83,0.00,,BKN090,0.00,VWS V14.00,2013-05-18 08:36:00,
2013-05-18 04:41:00,54.8,49.7,30.21,North,360,0.0,0.0,83,0.00,,BKN090,0.00,VWS V14.00,2013-05-18 08:41:00,
2013-05-18 04:46:00,54.8,49.7,30.21,North,360,0.0,0.0,83,0.00,,BKN090,0.00,VWS V14.00,2013-05-18 08:46:00,
2013-05-18 04:51:00,54.9,49.8,30.21,North,360,0.0,0.0,83,0.00,,BKN090,0.00,VWS V14.00,2013-05-18 08:51:00,
2013-05-18 04:56:00,55.0,49.9,30.21,North,360,0.0,0.0,83,0.00,,BKN090,0.00,VWS V14.00,2013-05-18 08:56:00,
2013-05-18 05:06:00,55.1,50.0,30.21,North,360,0.0,0.0,83,0.00,,OVC075,0.00,VWS V14.00,2013-05-18 09:06:00,
2013-05-18 05:11:00,55.1,49.7,30.21,North,360,0.0,0.0,82,0.00,,OVC075,0.00,VWS V14.00,2013-05-18 09:11:00,
2013-05-18 05:16:00,55.2,49.8,30.21,North,360,0.0,0.0,82,0.00,,OVC075,0.00,VWS V14.00,2013-05-18 09:16:00,
2013-05-18 05:21:00,55.3,50.2,30.21,North,360,0.0,0.0,83,0.00,,OVC075,0.00,VWS V14.00,2013-05-18 09:21:00,
2013-05-18 05:26:00,55.4,50.0,30.21,North,360,0.0,0.0,82,0.00,,OVC075,0.00,VWS V14.00,2013-05-18 09:26:00,
2013-05-18 05:31:00,55.4,50.0,30.21,North,360,0.0,0.0,82,0.00,,OVC075,0.00,VWS V14.00,2013-05-18 09:31:00,
2013-05-18 05:36:00,55.4,50.0,30.21,North,360,0.0,0.0,82,0.00,,OVC075,0.00,VWS V14.00,2013-05-18 09:36:00,
2013-05-18 05:41:00,55.4,50.0,30.21,North,360,0.0,0.0,82,0.00,,OVC075,0.00,VWS V14.00,2013-05-18 09:41:00,
2013-05-18 05:46:00,55.5,50.1,30.21,North,360,0.0,0.0,82,0.00,,OVC075,0.00,VWS V14.00,2013-05-18 09:46:00,
2013-05-18 05:51:00,55.5,50.1,30.21,North,360,0.0,0.0,82,0.00,,OVC075,0.00,VWS V14.00,2013-05-18 09:51:00,
2013-05-18 05:56:00,55.5,50.1,30.21,North,360,0.0,0.0,82,0.00,,OVC075,0.00,VWS V14.00,2013-05-18 09:56:00,
2013-05-18 06:01:00,55.5,50.1,30.22,North,360,0.0,0.0,82,0.00,,OVC070,0.00,VWS V14.00,2013-05-18 10:01:00,
2013-05-18 06:06:00,55.5,50.1,30.22,North,360,0.0,0.0,82,0.00,,OVC070,0.00,VWS V14.00,2013-05-18 10:06:00,
2013-05-18 06:11:00,55.5,50.1,30.22,North,360,0.0,0.0,82,0.00,,OVC070,0.00,VWS V14.00,2013-05-18 10:11:00,
2013-05-18 06:16:00,55.5,50.1,30.22,North,360,0.0,0.0,82,0.00,,OVC070,0.00,VWS V14.00,2013-05-18 10:16:00,
2013-05-18 06:21:00,55.6,50.2,30.22,North,360,0.0,0.0,82,0.00,,OVC070,0.00,VWS V14.00,2013-05-18 10:21:00,
2013-05-18 06:26:00,55.7,50.3,30.22,North,360,0.0,0.0,82,0.00,,OVC070,0.00,VWS V14.00,2013-05-18 10:26:00,
2013-05-18 06:31:00,55.7,50.3,30.23,North,360,0.0,0.0,82,0.00,,OVC070,0.00,VWS V14.00,2013-05-18 10:31:00,
2013-05-18 06:36:00,55.8,50.4,30.23,North,360,0.0,0.0,82,0.00,,OVC070,0.00,VWS V14.00,2013-05-18 10:36:00,
2013-05-18 06:41:00,55.9,50.5,30.23,North,360,0.0,0.0,82,0.00,,OVC070,0.00,VWS V14.00,2013-05-18 10:41:00,
2013-05-18 06:46:00,56.0,50.6,30.23,North,360,0.0,0.0,82,0.00,,OVC070,0.00,VWS V14.00,2013-05-18 10:46:00,
2013-05-18 06:51:00,56.2,50.8,30.23,North,360,0.0,0.0,82,0.00,,OVC070,0.00,VWS V14.00,2013-05-18 10:51:00,
2013-05-18 06:56:00,56.4,51.3,30.23,North,360,0.0,0.0,83,0.00,,OVC070,0.00,VWS V14.00,2013-05-18 10:56:00,
2013-05-18 07:01:00,56.6,51.5,30.23,North,360,0.0,0.0,83,0.00,,OVC075,0.00,VWS V14.00,2013-05-18 11:01:00,
2013-05-18 07:06:00,56.7,51.3,30.23,North,360,0.0,0.0,82,0.00,,OVC075,0.00,VWS V14.00,2013-05-18 11:06:00,
2013-05-18 07:11:00,56.8,51.4,30.23,North,360,0.0,0.0,82,0.00,,OVC075,0.00,VWS V14.00,2013-05-18 11:11:00,
2013-05-18 07:16:00,56.9,51.5,30.24,North,360,0.0,0.0,82,0.00,,OVC075,0.00,VWS V14.00,2013-05-18 11:16:00,
2013-05-18 07:21:00,57.1,51.7,30.24,North,360,0.0,0.0,82,0.00,,OVC075,0.00,VWS V14.00,2013-05-18 11:21:00,
2013-05-18 07:26:00,57.2,51.8,30.24,North,360,0.0,0.0,82,0.00,,OVC075,0.00,VWS V14.00,2013-05-18 11:26:00,
2013-05-18 07:31:00,57.2,51.8,30.25,North,360,0.0,0.0,82,0.00,,OVC075,0.00,VWS V14.00,2013-05-18 11:31:00,
2013-05-18 07:36:00,57.3,51.9,30.25,North,360,0.0,0.0,82,0.00,,OVC075,0.00,VWS V14.00,2013-05-18 11:36:00,
2013-05-18 07:41:00,57.5,52.1,30.25,North,360,0.0,0.0,82,0.00,,OVC075,0.00,VWS V14.00,2013-05-18 11:41:00,
2013-05-18 07:46:00,57.6,52.2,30.25,North,360,0.0,0.0,82,0.00,,OVC075,0.00,VWS V14.00,2013-05-18 11:46:00,
2013-05-18 07:51:00,57.6,52.2,30.25,North,360,0.0,0.0,82,0.00,,OVC075,0.00,VWS V14.00,2013-05-18 11:51:00,
2013-05-18 07:56:00,57.7,52.2,30.25,North,360,0.0,0.0,82,0.00,,OVC075,0.00,VWS V14.00,2013-05-18 11:56:00,
2013-05-18 08:01:00,57.7,52.2,30.25,SW,217,0.0,0.0,82,0.00,,-RA,0.00,VWS V14.00,2013-05-18 12:01:00,
2013-05-18 08:06:00,57.9,52.5,30.25,SW,217,0.0,0.0,82,0.00,,-RA,0.00,VWS V14.00,2013-05-18 12:06:00,
2013-05-18 08:11:00,58.1,52.6,30.25,SW,217,0.0,0.0,82,0.00,,-RA,0.00,VWS V14.00,2013-05-18 12:11:00,
2013-05-18 08:16:00,58.2,51.7,30.25,SW,217,0.0,0.0,79,0.00,,-RA,0.00,VWS V14.00,2013-05-18 12:16:00,
2013-05-18 08:21:00,58.4,51.2,30.25,SW,217,0.0,0.0,77,0.00,,-RA,0.00,VWS V14.00,2013-05-18 12:21:00,
2013-05-18 08:26:00,58.7,51.5,30.25,SW,217,0.0,0.0,77,0.00,,-RA,0.00,VWS V14.00,2013-05-18 12:26:00,
2013-05-18 08:31:00,59.0,51.5,30.26,SW,217,0.0,0.0,76,0.00,,-RA,0.00,VWS V14.00,2013-05-18 12:31:00,
2013-05-18 08:36:00,59.0,51.5,30.26,SW,217,0.0,0.0,76,0.00,,-RA,0.00,VWS V14.00,2013-05-18 12:36:00,
2013-05-18 08:41:00,59.0,51.5,30.26,SW,217,0.0,0.0,76,0.00,,-RA,0.00,VWS V14.00,2013-05-18 12:41:00,
2013-05-18 08:46:00,59.0,51.5,30.26,SW,217,0.0,0.0,76,0.00,,-RA,0.00,VWS V14.00,2013-05-18 12:46:00,
2013-05-18 08:51:00,59.3,51.4,30.26,SSW,200,0.0,0.0,75,0.00,,-RA,0.00,VWS V14.00,2013-05-18 12:51:00,
2013-05-18 08:56:00,59.5,51.6,30.26,SSW,200,0.0,0.0,75,0.00,,-RA,0.00,VWS V14.00,2013-05-18 12:56:00,
2013-05-18 09:01:00,59.7,51.8,30.26,SSW,200,0.0,0.0,75,0.00,,SCT085,0.00,VWS V14.00,2013-05-18 13:01:00,
2013-05-18 09:06:00,60.0,52.4,30.26,South,185,1.0,1.0,76,0.00,,SCT085,0.00,VWS V14.00,2013-05-18 13:06:00,
2013-05-18 09:11:00,60.2,51.9,30.26,South,185,0.0,0.0,74,0.00,,SCT085,0.00,VWS V14.00,2013-05-18 13:11:00,
2013-05-18 09:16:00,60.4,52.1,30.26,ESE,121,0.0,1.0,74,0.00,,SCT085,0.00,VWS V14.00,2013-05-18 13:16:00,
2013-05-18 09:21:00,60.5,51.8,30.26,ESE,121,0.0,1.0,73,0.00,,SCT085,0.00,VWS V14.00,2013-05-18 13:21:00,
2013-05-18 09:26:00,60.5,52.2,30.26,SE,124,0.0,1.0,74,0.00,,SCT085,0.00,VWS V14.00,2013-05-18 13:26:00,
2013-05-18 09:31:00,60.6,52.3,30.25,SE,130,0.0,0.0,74,0.00,,SCT085,0.00,VWS V14.00,2013-05-18 13:31:00,
2013-05-18 09:36:00,60.7,52.4,30.25,South,182,0.0,0.0,74,0.00,,SCT085,0.00,VWS V14.00,2013-05-18 13:36:00,
2013-05-18 09:41:00,60.9,52.6,30.25,South,182,0.0,1.0,74,0.00,,SCT085,0.00,VWS V14.00,2013-05-18 13:41:00,
2013-05-18 09:46:00,61.0,52.7,30.26,South,182,0.0,0.0,74,0.00,,SCT085,0.00,VWS V14.00,2013-05-18 13:46:00,
2013-05-18 09:51:00,61.2,52.9,30.26,West,269,0.0,0.0,74,0.00,,SCT085,0.00,VWS V14.00,2013-05-18 13:51:00,
2013-05-18 09:56:00,61.4,53.0,30.26,West,269,0.0,0.0,74,0.00,,SCT085,0.00,VWS V14.00,2013-05-18 13:56:00,
2013-05-18 10:01:00,61.5,53.2,30.26,West,269,0.0,0.0,74,0.00,,CLR,0.00,VWS V14.00,2013-05-18 14:01:00,
2013-05-18 10:06:00,61.6,53.2,30.26,West,269,0.0,0.0,74,0.00,,CLR,0.00,VWS V14.00,2013-05-18 14:06:00,
2013-05-18 10:11:00,61.7,53.3,30.26,West,269,1.0,1.0,74,0.00,,CLR,0.00,VWS V14.00,2013-05-18 14:11:00,
2013-05-18 10:16:00,61.8,53.8,30.27,SSW,210,0.0,0.0,75,0.00,,CLR,0.00,VWS V14.00,2013-05-18 14:16:00,
2013-05-18 10:21:00,61.9,53.5,30.27,SSW,210,0.0,1.0,74,0.00,,CLR,0.00,VWS V14.00,2013-05-18 14:21:00,
2013-05-18 10:26:00,62.0,53.3,30.27,SSW,210,0.0,0.0,73,0.00,,CLR,0.00,VWS V14.00,2013-05-18 14:26:00,
2013-05-18 10:31:00,62.0,53.3,30.27,SSW,210,0.0,0.0,73,0.00,,CLR,0.00,VWS V14.00,2013-05-18 14:31:00,
2013-05-18 10:36:00,62.2,53.1,30.27,SSE,155,0.0,2.0,72,0.00,,CLR,0.00,VWS V14.00,2013-05-18 14:36:00,
2013-05-18 10:41:00,62.1,53.0,30.27,SSE,155,0.0,1.0,72,0.00,,CLR,0.00,VWS V14.00,2013-05-18 14:41:00,
2013-05-18 10:46:00,62.1,53.3,30.26,SSE,155,0.0,0.0,73,0.00,,CLR,0.00,VWS V14.00,2013-05-18 14:46:00,
2013-05-18 10:51:00,62.3,53.5,30.26,SSE,155,0.0,0.0,73,0.00,,CLR,0.00,VWS V14.00,2013-05-18 14:51:00,
2013-05-18 10:56:00,62.5,53.4,30.26,SE,134,1.0,2.0,72,0.00,,CLR,0.00,VWS V14.00,2013-05-18 14:56:00,
2013-05-18 11:06:00,62.6,53.8,30.26,SE,135,0.0,2.0,73,0.00,,,0.00,VWS V14.00,2013-05-18 15:06:00,
2013-05-18 11:11:00,62.9,54.1,30.26,SE,138,0.0,0.0,73,0.00,,,0.00,VWS V14.00,2013-05-18 15:11:00,
2013-05-18 11:16:00,63.3,54.1,30.26,SE,134,0.0,0.0,72,0.00,,,0.00,VWS V14.00,2013-05-18 15:16:00,
2013-05-18 11:21:00,63.7,55.3,30.26,South,169,2.0,3.0,74,0.00,,,0.00,VWS V14.00,2013-05-18 15:21:00,
2013-05-18 11:26:00,64.0,54.8,30.26,SSE,158,0.0,1.0,72,0.00,,,0.00,VWS V14.00,2013-05-18 15:26:00,
2013-05-18 11:31:00,64.0,54.4,30.27,SSE,159,0.0,3.0,71,0.00,,,0.00,VWS V14.00,2013-05-18 15:31:00,
2013-05-18 11:36:00,64.0,54.8,30.27,SSE,159,0.0,1.0,72,0.00,,,0.00,VWS V14.00,2013-05-18 15:36:00,
2013-05-18 11:41:00,64.1,54.9,30.27,South,186,2.0,4.0,72,0.00,,,0.00,VWS V14.00,2013-05-18 15:41:00,
2013-05-18 11:46:00,64.4,55.2,30.26,South,181,0.0,1.0,72,0.00,,,0.00,VWS V14.00,2013-05-18 15:46:00,
2013-05-18 11:51:00,64.6,55.0,30.26,SSW,200,0.0,2.0,71,0.00,,,0.00,VWS V14.00,2013-05-18 15:51:00,
2013-05-18 11:56:00,64.7,55.1,30.26,SSW,200,2.0,3.0,71,0.00,,,0.00,VWS V14.00,2013-05-18 15:56:00,
2013-05-18 12:01:00,64.7,55.1,30.25,SSE,153,0.0,1.0,71,0.00,,FEW080,0.00,VWS V14.00,2013-05-18 16:01:00,
2013-05-18 12:06:00,64.7,55.5,30.25,SE,134,5.0,5.0,72,0.00,,FEW080,0.00,VWS V14.00,2013-05-18 16:06:00,
2013-05-18 12:11:00,64.8,54.8,30.25,SSE,153,0.0,2.0,70,0.00,,FEW080,0.00,VWS V14.00,2013-05-18 16:11:00,
2013-05-18 12:16:00,64.8,55.2,30.25,South,183,0.0,1.0,71,0.00,,FEW080,0.00,VWS V14.00,2013-05-18 16:16:00,
2013-05-18 12:21:00,64.9,55.3,30.25,SE,142,1.0,6.0,71,0.00,,FEW080,0.00,VWS V14.00,2013-05-18 16:21:00,
2013-05-18 12:26:00,64.8,55.2,30.25,SSE,166,0.0,2.0,71,0.00,,FEW080,0.00,VWS V14.00,2013-05-18 16:26:00,
2013-05-18 12:31:00,64.9,54.9,30.26,SE,132,0.0,2.0,70,0.00,,FEW080,0.00,VWS V14.00,2013-05-18 16:31:00,
2013-05-18 12:36:00,65.0,55.0,30.26,South,186,1.0,3.0,70,0.00,,FEW080,0.00,VWS V14.00,2013-05-18 16:36:00,
2013-05-18 12:41:00,65.2,55.2,30.26,SE,141,0.0,1.0,70,0.00,,FEW080,0.00,VWS V14.00,2013-05-18 16:41:00,
2013-05-18 12:46:00,65.6,55.2,30.25,SE,141,0.0,2.0,69,0.00,,FEW080,0.00,VWS V14.00,2013-05-18 16:46:00,
2013-05-18 12:51:00,65.8,55.0,30.25,ESE,107,2.0,2.0,68,0.00,,FEW080,0.00,VWS V14.00,2013-05-18 16:51:00,
2013-05-18 12:56:00,66.0,55.5,30.25,South,184,2.0,6.0,69,0.00,,FEW080,0.00,VWS V14.00,2013-05-18 16:56:00,
2013-05-18 13:01:00,66.4,55.5,30.25,SE,132,0.0,2.0,68,0.00,,OVC065,0.00,VWS V14.00,2013-05-18 17:01:00,
2013-05-18 13:06:00,66.7,55.8,30.25,South,188,2.0,3.0,68,0.00,,OVC065,0.00,VWS V14.00,2013-05-18 17:06:00,
2013-05-18 13:11:00,67.1,56.6,30.25,South,182,3.0,3.0,69,0.00,,OVC065,0.00,VWS V14.00,2013-05-18 17:11:00,
2013-05-18 13:16:00,67.4,56.1,30.24,SSE,159,0.0,1.0,67,0.00,,OVC065,0.00,VWS V14.00,2013-05-18 17:16:00,
2013-05-18 13:21:00,67.6,55.8,30.24,South,178,4.0,10.0,66,0.00,,OVC065,0.00,VWS V14.00,2013-05-18 17:21:00,
2013-05-18 13:26:00,67.9,56.5,30.24,East,90,0.0,3.0,67,0.00,,OVC065,0.00,VWS V14.00,2013-05-18 17:26:00,
2013-05-18 13:31:00,67.9,56.5,30.24,SE,142,2.0,3.0,67,0.00,,OVC065,0.00,VWS V14.00,2013-05-18 17:31:00,
2013-05-18 13:36:00,67.7,55.5,30.24,SSE,154,1.0,2.0,65,0.00,,OVC065,0.00,VWS V14.00,2013-05-18 17:36:00,
2013-05-18 13:41:00,68.0,56.2,30.24,ESE,107,2.0,2.0,66,0.00,,OVC065,0.00,VWS V14.00,2013-05-18 17:41:00,
2013-05-18 13:46:00,67.7,55.5,30.24,SE,129,0.0,3.0,65,0.00,,OVC065,0.00,VWS V14.00,2013-05-18 17:46:00,
2013-05-18 13:51:00,67.6,55.4,30.24,South,177,2.0,3.0,65,0.00,,OVC065,0.00,VWS V14.00,2013-05-18 17:51:00,
2013-05-18 13:56:00,67.6,55.4,30.24,South,182,2.0,2.0,65,0.00,,OVC065,0.00,VWS V14.00,2013-05-18 17:56:00,
2013-05-18 14:01:00,67.7,55.5,30.23,SSE,165,0.0,4.0,65,0.00,,OVC065,0.00,VWS V14.00,2013-05-18 18:01:00,
2013-05-18 14:06:00,67.6,55.0,30.23,ESE,115,0.0,2.0,64,0.00,,OVC065,0.00,VWS V14.00,2013-05-18 18:06:00,
2013-05-18 14:11:00,67.5,55.3,30.23,South,178,5.0,7.0,65,0.00,,OVC065,0.00,VWS V14.00,2013-05-18 18:11:00,
2013-05-18 14:16:00,67.4,54.8,30.23,SSW,213,5.0,6.0,64,0.00,,OVC065,0.00,VWS V14.00,2013-05-18 18:16:00,
2013-05-18 14:21:00,67.3,54.3,30.23,SSW,196,0.0,1.0,63,0.00,,OVC065,0.00,VWS V14.00,2013-05-18 18:21:00,
2013-05-18 14:26:00,67.2,54.2,30.23,SSE,150,1.0,3.0,63,0.00,,OVC065,0.00,VWS V14.00,2013-05-18 18:26:00,
2013-05-18 14:31:00,67.1,53.7,30.23,SW,215,6.0,7.0,62,0.00,,OVC065,0.00,VWS V14.00,2013-05-18 18:31:00,
2013-05-18 14:36:00,66.9,53.0,30.23,ESE,123,2.0,2.0,61,0.00,,OVC065,0.00,VWS V14.00,2013-05-18 18:36:00,
2013-05-18 14:41:00,66.6,53.2,30.23,SE,134,0.0,2.0,62,0.00,,OVC065,0.00,VWS V14.00,2013-05-18 18:41:00,
2013-05-18 14:46:00,66.5,52.7,30.23,SSE,168,2.0,3.0,61,0.00,,OVC065,0.00,VWS V14.00,2013-05-18 18:46:00,
2013-05-18 14:51:00,66.4,53.0,30.23,SSE,165,0.0,5.0,62,0.00,,OVC065,0.00,VWS V14.00,2013-05-18 18:51:00,
2013-05-18 14:56:00,66.3,52.5,30.23,SSW,198,0.0,3.0,61,0.00,,OVC065,0.00,VWS V14.00,2013-05-18 18:56:00,
2013-05-18 15:06:00,66.0,53.9,30.24,ESE,112,0.0,4.0,65,0.00,,-RA,0.00,VWS V14.00,2013-05-18 19:06:00,
2013-05-18 15:11:00,65.8,53.7,30.24,SSW,196,4.0,4.0,65,0.00,,-RA,0.00,VWS V14.00,2013-05-18 19:11:00,
2013-05-18 15:16:00,65.6,53.1,30.24,SSW,195,0.0,0.0,64,0.00,,-RA,0.00,VWS V14.00,2013-05-18 19:16:00,
2013-05-18 15:21:00,65.6,53.5,30.24,SE,128,0.0,1.0,65,0.00,,-RA,0.00,VWS V14.00,2013-05-18 19:21:00,
2013-05-18 15:26:00,65.5,53.0,30.24,South,173,0.0,0.0,64,0.00,,-RA,0.00,VWS V14.00,2013-05-18 19:26:00,
2013-05-18 15:31:00,65.5,53.4,30.24,South,173,0.0,1.0,65,0.00,,-RA,0.00,VWS V14.00,2013-05-18 19:31:00,
2013-05-18 15:36:00,65.4,54.2,30.24,SSW,196,0.0,0.0,67,0.00,,-RA,0.00,VWS V14.00,2013-05-18 19:36:00,
2013-05-18 15:41:00,65.3,54.1,30.24,SSW,195,0.0,0.0,67,0.00,,-RA,0.00,VWS V14.00,2013-05-18 19:41:00,
2013-05-18 15:46:00,65.1,54.3,30.24,SSE,149,1.0,1.0,68,0.00,,-RA,0.00,VWS V14.00,2013-05-18 19:46:00,
2013-05-18 15:51:00,64.9,54.5,30.24,South,176,0.0,0.0,69,0.00,,-RA,0.00,VWS V14.00,2013-05-18 19:51:00,
2013-05-18 15:56:00,64.6,53.8,30.24,South,172,0.0,0.0,68,0.00,,-RA,0.00,VWS V14.00,2013-05-18 19:56:00,
2013-05-18 16:01:00,64.4,53.6,30.24,South,171,1.0,2.0,68,0.00,,OVC070,0.00,VWS V14.00,2013-05-18 20:01:00,
2013-05-18 16:06:00,64.4,54.4,30.24,SSE,161,0.0,3.0,70,0.00,,OVC070,0.00,VWS V14.00,2013-05-18 20:06:00,
2013-05-18 16:11:00,64.3,54.3,30.24,SSE,157,0.0,0.0,70,0.00,,OVC070,0.00,VWS V14.00,2013-05-18 20:11:00,
2013-05-18 16:16:00,64.1,54.5,30.25,SSE,168,0.0,1.0,71,0.00,,OVC070,0.00,VWS V14.00,2013-05-18 20:16:00,
2013-05-18 16:21:00,64.0,54.8,30.25,SSE,165,0.0,3.0,72,0.00,,OVC070,0.00,VWS V14.00,2013-05-18 20:21:00,
2013-05-18 16:26:00,63.8,54.6,30.25,SE,129,0.0,0.0,72,0.00,,OVC070,0.00,VWS V14.00,2013-05-18 20:26:00,
2013-05-18 16:31:00,63.7,54.5,30.25,South,182,3.0,3.0,72,0.00,,OVC070,0.00,VWS V14.00,2013-05-18 20:31:00,
2013-05-18 16:36:00,63.6,54.8,30.25,SSE,154,0.0,1.0,73,0.00,,OVC070,0.00,VWS V14.00,2013-05-18 20:36:00,
2013-05-18 16:41:00,63.5,54.7,30.25,SSE,161,0.0,0.0,73,0.00,,OVC070,0.00,VWS V14.00,2013-05-18 20:41:00,
2013-05-18 16:46:00,63.4,55.3,30.25,South,172,0.0,0.0,75,0.00,,OVC070,0.00,VWS V14.00,2013-05-18 20:46:00,
2013-05-18 16:51:00,63.1,55.1,30.25,SSE,159,0.0,1.0,75,0.00,,OVC070,0.00,VWS V14.00,2013-05-18 20:51:00,
2013-05-18 16:56:00,63.0,55.7,30.25,ESE,123,0.0,1.0,77,0.00,,OVC070,0.00,VWS V14.00,2013-05-18 20:56:00,
2013-05-18 17:01:00,62.7,55.8,30.25,SE,125,1.0,1.0,78,0.00,,-RA,0.00,VWS V14.00,2013-05-18 21:01:00,
2013-05-18 17:06:00,62.6,56.0,30.25,SE,130,1.0,1.0,79,0.00,,-RA,0.00,VWS V14.00,2013-05-18 21:06:00,
2013-05-18 17:11:00,62.5,55.9,30.25,ESE,120,0.0,1.0,79,0.00,,-RA,0.00,VWS V14.00,2013-05-18 21:11:00,
2013-05-18 17:16:00,62.4,55.8,30.25,SSE,155,1.0,1.0,79,0.00,,-RA,0.00,VWS V14.00,2013-05-18 21:16:00,
2013-05-18 17:21:00,62.2,56.3,30.25,SSE,155,0.0,0.0,81,0.00,,-RA,0.00,VWS V14.00,2013-05-18 21:21:00,
2013-05-18 17:26:00,62.0,56.5,30.25,South,189,0.0,0.0,82,0.00,,-RA,0.00,VWS V14.00,2013-05-18 21:26:00,
2013-05-18 17:31:00,61.7,56.2,30.26,SW,221,0.0,1.0,82,0.00,,-RA,0.01,VWS V14.00,2013-05-18 21:31:00,
2013-05-18 17:36:00,61.4,56.2,30.26,SW,216,0.0,0.0,83,0.00,,-RA,0.01,VWS V14.00,2013-05-18 21:36:00,
2013-05-18 17:41:00,61.0,55.8,30.26,SE,129,0.0,2.0,83,0.00,,-RA,0.01,VWS V14.00,2013-05-18 21:41:00,
2013-05-18 17:46:00,60.6,55.4,30.25,SSE,153,0.0,0.0,83,0.00,,-RA,0.01,VWS V14.00,2013-05-18 21:46:00,
2013-05-18 17:51:00,60.3,55.5,30.25,SE,131,0.0,0.0,84,0.00,,-RA,0.01,VWS V14.00,2013-05-18 21:51:00,
2013-05-18 17:56:00,60.1,55.3,30.25,ESE,105,0.0,0.0,84,0.00,,-RA,0.01,VWS V14.00,2013-05-18 21:56:00,
2013-05-18 18:01:00,59.9,55.1,30.25,SE,126,0.0,2.0,84,0.00,,OVC060,0.01,VWS V14.00,2013-05-18 22:01:00,
2013-05-18 18:06:00,59.9,55.4,30.25,SE,126,1.0,1.0,85,0.00,,OVC060,0.01,VWS V14.00,2013-05-18 22:06:00,
2013-05-18 18:11:00,59.7,55.5,30.25,SE,128,1.0,2.0,86,0.00,,OVC060,0.01,VWS V14.00,2013-05-18 22:11:00,
2013-05-18 18:16:00,59.5,55.3,30.25,SE,128,0.0,0.0,86,0.00,,OVC060,0.02,VWS V14.00,2013-05-18 22:16:00,
2013-05-18 18:21:00,59.3,55.4,30.25,SSE,152,0.0,2.0,87,0.00,,OVC060,0.02,VWS V14.00,2013-05-18 22:21:00,
2013-05-18 18:26:00,59.3,55.4,30.25,SSE,150,0.0,0.0,87,0.00,,OVC060,0.02,VWS V14.00,2013-05-18 22:26:00,
2013-05-18 18:31:00,59.3,55.8,30.26,SSE,152,0.0,0.0,88,0.00,,OVC060,0.02,VWS V14.00,2013-05-18 22:31:00,
2013-05-18 18:36:00,59.2,55.7,30.26,ESE,111,1.0,1.0,88,0.00,,OVC060,0.02,VWS V14.00,2013-05-18 22:36:00,
2013-05-18 18:41:00,59.0,55.5,30.26,East,98,0.0,1.0,88,0.00,,OVC060,0.02,VWS V14.00,2013-05-18 22:41:00,
2013-05-18 18:46:00,59.0,55.5,30.26,SSE,163,0.0,0.0,88,0.00,,OVC060,0.02,VWS V14.00,2013-05-18 22:46:00,
2013-05-18 18:51:00,59.0,55.8,30.26,SSE,163,0.0,0.0,89,0.00,,OVC060,0.02,VWS V14.00,2013-05-18 22:51:00,
2013-05-18 18:56:00,59.0,55.8,30.26,SSE,163,0.0,1.0,89,0.00,,OVC060,0.02,VWS V14.00,2013-05-18 22:56:00,
2013-05-18 19:01:00,59.0,55.8,30.25,SSE,163,1.0,1.0,89,0.00,,OVC060,0.02,VWS V14.00,2013-05-18 23:01:00,
2013-05-18 19:06:00,59.0,55.8,30.25,SSE,163,1.0,1.0,89,0.00,,OVC060,0.02,VWS V14.00,2013-05-18 23:06:00,
2013-05-18 19:11:00,59.0,55.8,30.25,ESE,103,0.0,0.0,89,0.00,,OVC060,0.02,VWS V14.00,2013-05-18 23:11:00,
2013-05-18 19:16:00,59.0,55.8,30.25,South,176,0.0,1.0,89,0.00,,OVC060,0.02,VWS V14.00,2013-05-18 23:16:00,
2013-05-18 19:21:00,59.0,55.8,30.25,SSE,167,0.0,1.0,89,0.00,,OVC060,0.02,VWS V14.00,2013-05-18 23:21:00,
2013-05-18 19:26:00,59.0,55.8,30.25,SSE,167,0.0,1.0,89,0.00,,OVC060,0.02,VWS V14.00,2013-05-18 23:26:00,
2013-05-18 19:31:00,59.0,55.8,30.26,SSE,148,0.0,1.0,89,0.00,,OVC060,0.02,VWS V14.00,2013-05-18 23:31:00,
2013-05-18 19:36:00,59.0,55.8,30.26,South,180,0.0,1.0,89,0.00,,OVC060,0.02,VWS V14.00,2013-05-18 23:36:00,
2013-05-18 19:41:00,59.0,55.8,30.26,SSE,161,0.0,1.0,89,0.00,,OVC060,0.02,VWS V14.00,2013-05-18 23:41:00,
2013-05-18 19:46:00,59.0,55.8,30.26,SE,136,0.0,1.0,89,0.00,,OVC060,0.02,VWS V14.00,2013-05-18 23:46:00,
2013-05-18 19:51:00,59.0,55.8,30.26,ESE,113,0.0,1.0,89,0.00,,OVC060,0.02,VWS V14.00,2013-05-18 23:51:00,
2013-05-18 19:56:00,59.0,55.8,30.26,ESE,102,0.0,0.0,89,0.00,,OVC060,0.02,VWS V14.00,2013-05-18 23:56:00,
2013-05-18 20:06:00,59.0,55.8,30.26,ESE,112,0.0,1.0,89,0.00,,OVC060,0.02,VWS V14.00,2013-05-19 00:06:00,
2013-05-18 20:11:00,58.9,55.7,30.26,South,170,0.0,0.0,89,0.00,,OVC055,0.02,VWS V14.00,2013-05-19 00:11:00,
2013-05-18 20:16:00,59.0,55.8,30.25,ENE,59,0.0,1.0,89,0.00,,OVC055,0.02,VWS V14.00,2013-05-19 00:16:00,
2013-05-18 20:21:00,58.9,55.7,30.25,South,172,0.0,3.0,89,0.00,,OVC055,0.02,VWS V14.00,2013-05-19 00:21:00,
2013-05-18 20:26:00,58.9,55.7,30.25,South,169,0.0,0.0,89,0.00,,OVC055,0.02,VWS V14.00,2013-05-19 00:26:00,
2013-05-18 20:31:00,58.9,55.7,30.25,SSE,168,0.0,0.0,89,0.00,,OVC055,0.02,VWS V14.00,2013-05-19 00:31:00,
2013-05-18 20:36:00,58.8,55.9,30.25,SSE,159,0.0,2.0,90,0.00,,OVC055,0.02,VWS V14.00,2013-05-19 00:36:00,
2013-05-18 20:41:00,58.8,55.9,30.25,SE,133,0.0,0.0,90,0.00,,OVC055,0.02,VWS V14.00,2013-05-19 00:41:00,
2013-05-18 20:46:00,58.7,55.5,30.26,SE,133,0.0,0.0,89,0.00,,OVC055,0.02,VWS V14.00,2013-05-19 00:46:00,
2013-05-18 20:51:00,58.7,55.5,30.26,SSW,198,0.0,0.0,89,0.00,,OVC055,0.02,VWS V14.00,2013-05-19 00:51:00,
2013-05-18 20:56:00,58.8,55.6,30.26,SSW,198,0.0,1.0,89,0.00,,OVC055,0.02,VWS V14.00,2013-05-19 00:56:00,
2013-05-18 21:01:00,58.7,55.8,30.26,South,178,3.0,3.0,90,0.00,,OVC050,0.02,VWS V14.00,2013-05-19 01:01:00,
2013-05-18 21:06:00,58.7,55.8,30.26,SSE,160,0.0,1.0,90,0.00,,OVC050,0.02,VWS V14.00,2013-05-19 01:06:00,
2013-05-18 21:11:00,58.6,55.7,30.26,SSE,161,0.0,0.0,90,0.00,,OVC050,0.02,VWS V14.00,2013-05-19 01:11:00,
2013-05-18 21:16:00,58.6,55.7,30.26,SSE,160,0.0,0.0,90,0.00,,OVC050,0.02,VWS V14.00,2013-05-19 01:16:00,
2013-05-18 21:21:00,58.6,55.7,30.26,SSE,161,0.0,1.0,90,0.00,,OVC050,0.02,VWS V14.00,2013-05-19 01:21:00,
2013-05-18 21:26:00,58.5,55.6,30.26,SSE,157,0.0,0.0,90,0.00,,OVC050,0.02,VWS V14.00,2013-05-19 01:26:00,
2013-05-18 21:31:00,58.4,55.5,30.27,SSE,157,0.0,0.0,90,0.00,,OVC050,0.03,VWS V14.00,2013-05-19 01:31:00,
2013-05-18 21:36:00,58.3,55.4,30.27,SSE,150,0.0,0.0,90,0.00,,OVC050,0.03,VWS V14.00,2013-05-19 01:36:00,
2013-05-18 21:41:00,58.3,55.4,30.27,SSE,161,0.0,0.0,90,0.00,,OVC050,0.03,VWS V14.00,2013-05-19 01:41:00,
2013-05-18 21:46:00,58.2,55.3,30.27,SE,130,0.0,1.0,90,0.00,,OVC050,0.03,VWS V14.00,2013-05-19 01:46:00,
2013-05-18 21:51:00,58.0,55.1,30.27,SSE,156,0.0,0.0,90,0.00,,OVC050,0.03,VWS V14.00,2013-05-19 01:51:00,
2013-05-18 21:56:00,57.9,55.0,30.27,SW,217,0.0,0.0,90,0.00,,OVC050,0.03,VWS V14.00,2013-05-19 01:56:00,
2013-05-18 22:01:00,57.8,54.9,30.27,West,259,0.0,4.0,90,0.00,,OVC050,0.03,VWS V14.00,2013-05-19 02:01:00,
2013-05-18 22:06:00,57.7,54.8,30.27,SSE,157,0.0,2.0,90,0.00,,OVC050,0.03,VWS V14.00,2013-05-19 02:06:00,
2013-05-18 22:11:00,57.6,54.7,30.27,SSE,148,4.0,4.0,90,0.00,,OVC050,0.04,VWS V14.00,2013-05-19 02:11:00,
2013-05-18 22:16:00,57.4,54.5,30.27,SSW,209,2.0,2.0,90,0.00,,OVC050,0.04,VWS V14.00,2013-05-19 02:16:00,
2013-05-18 22:21:00,57.3,54.4,30.27,SE,144,0.0,6.0,90,0.00,,OVC050,0.04,VWS V14.00,2013-05-19 02:21:00,
2013-05-18 22:26:00,57.3,54.4,30.27,ESE,107,0.0,3.0,90,0.00,,OVC050,0.04,VWS V14.00,2013-05-19 02:26:00,
2013-05-18 22:31:00,57.2,54.6,30.26,South,191,1.0,1.0,91,0.00,,OVC048,0.04,VWS V14.00,2013-05-19 02:31:00,
2013-05-18 22:36:00,57.1,54.5,30.26,SE,142,0.0,2.0,91,0.00,,OVC048,0.04,VWS V14.00,2013-05-19 02:36:00,
2013-05-18 22:41:00,57.1,54.5,30.26,SE,140,0.0,0.0,91,0.00,,OVC048,0.04,VWS V14.00,2013-05-19 02:41:00,
2013-05-18 22:46:00,57.1,54.5,30.26,SE,140,0.0,0.0,91,0.00,,OVC048,0.04,VWS V14.00,2013-05-19 02:46:00,
2013-05-18 22:51:00,57.1,54.5,30.26,SE,140,0.0,1.0,91,0.00,,OVC048,0.04,VWS V14.00,2013-05-19 02:51:00,
2013-05-18 22:56:00,57.1,54.5,30.26,SE,140,0.0,0.0,91,0.00,,OVC048,0.04,VWS V14.00,2013-05-19 02:56:00,
2013-05-18 23:01:00,57.1,54.5,30.26,SE,140,0.0,0.0,91,0.00,,OVC011,0.04,VWS V14.00,2013-05-19 03:01:00,
2013-05-18 23:06:00,57.1,54.5,30.26,SE,131,0.0,2.0,91,0.00,,OVC011,0.04,VWS V14.00,2013-05-19 03:06:00,
2013-05-18 23:11:00,57.0,54.4,30.26,South,171,0.0,2.0,91,0.00,,OVC009,0.04,VWS V14.00,2013-05-19 03:11:00,
2013-05-18 23:16:00,57.0,54.4,30.26,SE,145,0.0,2.0,91,0.00,,OVC009,0.04,VWS V14.00,2013-05-19 03:16:00,
2013-05-18 23:21:00,57.0,54.4,30.26,SSE,152,1.0,1.0,91,0.00,,OVC009,0.04,VWS V14.00,2013-05-19 03:21:00,
2013-05-18 23:26:00,57.0,54.4,30.26,SW,221,0.0,0.0,91,0.00,,OVC009,0.04,VWS V14.00,2013-05-19 03:26:00,
2013-05-18 23:31:00,57.0,54.7,30.26,SW,215,0.0,1.0,92,0.00,,OVC009,0.04,VWS V14.00,2013-05-19 03:31:00,
2013-05-18 23:36:00,56.9,54.6,30.26,ENE,72,0.0,2.0,92,0.00,,OVC009,0.04,VWS V14.00,2013-05-19 03:36:00,
2013-05-18 23:41:00,56.9,54.6,30.26,SSE,161,0.0,1.0,92,0.00,,OVC009,0.04,VWS V14.00,2013-05-19 03:41:00,
2013-05-18 23:46:00,56.9,54.6,30.26,SE,136,1.0,3.0,92,0.00,,OVC009,0.04,VWS V14.00,2013-05-19 03:46:00,
2013-05-18 23:51:00,56.9,54.6,30.26,SSE,147,0.0,0.0,92,0.00,,OVC009,0.04,VWS V14.00,2013-05-19 03:51:00,
2013-05-18 23:56:00,56.9,54.6,30.26,SE,138,0.0,0.0,92,0.00,,OVC009,0.04,VWS V14.00,2013-05-19 03:56:00,